UAL2859 KDEN-KEGE
Flight info
| Callsign | UAL2859 |
|---|---|
| Flight time | 0h 25m |
| Altitude | 22000 |
| Route | ZIMMR4 ZIMMR CULCH |
| Aircraft | A321/M-SDE3FGHIRWY/LB1 |
Departure
| Time | 2026-05-06 01:49 |
|---|---|
| Airport | Denver International Airport (KDEN) |
Arrival
| Time | 2026-05-06 02:14 |
|---|---|
| Airport | Eagle County Regional Airport (KEGE) |
| Time | Latitude | Longitude | Altitude | Speed | Heading |
|---|---|---|---|---|---|
| 2026-05-06 01:35 | 39.85935 | -104.67659 | 5378 ft | 0 kts | 181° |
| 2026-05-06 01:41 | 39.85936 | -104.67659 | 5377 ft | 2 kts | 181° |
| 2026-05-06 01:41 | 39.85945 | -104.67659 | 5379 ft | 0 kts | 181° |
| 2026-05-06 01:41 | 39.85951 | -104.67659 | 5375 ft | 2 kts | 181° |
| 2026-05-06 01:41 | 39.85967 | -104.67658 | 5376 ft | 2 kts | 181° |
| 2026-05-06 01:42 | 39.85983 | -104.67658 | 5379 ft | 2 kts | 181° |
| 2026-05-06 01:42 | 39.85999 | -104.67658 | 5379 ft | 2 kts | 181° |
| 2026-05-06 01:42 | 39.86015 | -104.67657 | 5377 ft | 2 kts | 181° |
| 2026-05-06 01:42 | 39.86019 | -104.67657 | 5378 ft | 0 kts | 181° |
| 2026-05-06 01:44 | 39.86016 | -104.67663 | 5377 ft | 4 kts | 224° |
| 2026-05-06 01:44 | 39.86017 | -104.67755 | 5378 ft | 13 kts | 280° |
| 2026-05-06 01:44 | 39.86055 | -104.67918 | 5377 ft | 23 kts | 285° |
| 2026-05-06 01:45 | 39.86058 | -104.68129 | 5378 ft | 24 kts | 248° |
| 2026-05-06 01:45 | 39.86028 | -104.68355 | 5373 ft | 25 kts | 258° |
| 2026-05-06 01:45 | 39.85968 | -104.68395 | 5371 ft | 10 kts | 174° |
| 2026-05-06 01:45 | 39.85869 | -104.68396 | 5373 ft | 22 kts | 181° |
| 2026-05-06 01:46 | 39.85703 | -104.68398 | 5372 ft | 25 kts | 180° |
| 2026-05-06 01:46 | 39.85531 | -104.68400 | 5377 ft | 24 kts | 180° |
| 2026-05-06 01:46 | 39.85359 | -104.68402 | 5381 ft | 26 kts | 181° |
| 2026-05-06 01:46 | 39.85218 | -104.68428 | 5378 ft | 18 kts | 232° |
| 2026-05-06 01:47 | 39.85205 | -104.68599 | 5375 ft | 22 kts | 268° |
| 2026-05-06 01:47 | 39.85200 | -104.68832 | 5364 ft | 29 kts | 269° |
| 2026-05-06 01:47 | 39.85196 | -104.69121 | 5350 ft | 35 kts | 269° |
| 2026-05-06 01:47 | 39.85201 | -104.69411 | 5341 ft | 30 kts | 272° |
| 2026-05-06 01:48 | 39.85218 | -104.69642 | 5340 ft | 17 kts | 306° |
| 2026-05-06 01:48 | 39.85294 | -104.69660 | 5339 ft | 12 kts | 4° |
| 2026-05-06 01:48 | 39.85441 | -104.69656 | 5338 ft | 50 kts | 1° |
| 2026-05-06 01:48 | 39.86067 | -104.69649 | 5337 ft | 127 kts | 0° |
| 2026-05-06 01:49 | 39.87126 | -104.69631 | 5664 ft | 158 kts | 2° |
| 2026-05-06 01:49 | 39.88189 | -104.69625 | 6728 ft | 153 kts | 4° |
| 2026-05-06 01:49 | 39.89281 | -104.69619 | 7373 ft | 166 kts | 3° |
| 2026-05-06 01:49 | 39.90518 | -104.69609 | 7861 ft | 188 kts | 1° |
| 2026-05-06 01:50 | 39.91890 | -104.69662 | 8157 ft | 210 kts | 352° |
| 2026-05-06 01:50 | 39.93198 | -104.70682 | 8339 ft | 236 kts | 309° |
| 2026-05-06 01:50 | 39.93805 | -104.72752 | 8471 ft | 259 kts | 276° |
| 2026-05-06 01:50 | 39.93823 | -104.75214 | 8759 ft | 283 kts | 265° |
| 2026-05-06 01:51 | 39.93644 | -104.77799 | 9511 ft | 289 kts | 262° |
| 2026-05-06 01:51 | 39.93452 | -104.80425 | 10345 ft | 292 kts | 263° |
| 2026-05-06 01:51 | 39.93312 | -104.83051 | 11291 ft | 289 kts | 265° |
| 2026-05-06 01:51 | 39.93232 | -104.85660 | 12231 ft | 287 kts | 267° |
| 2026-05-06 01:52 | 39.93199 | -104.88250 | 13186 ft | 285 kts | 268° |
| 2026-05-06 01:52 | 39.93198 | -104.90827 | 14095 ft | 284 kts | 269° |
| 2026-05-06 01:52 | 39.93237 | -104.93397 | 14879 ft | 283 kts | 271° |
| 2026-05-06 01:52 | 39.93301 | -104.95969 | 15642 ft | 284 kts | 271° |
| 2026-05-06 01:53 | 39.93373 | -104.98560 | 16378 ft | 286 kts | 271° |
| 2026-05-06 01:53 | 39.93445 | -105.01165 | 17129 ft | 288 kts | 271° |
| 2026-05-06 01:53 | 39.93514 | -105.03781 | 17880 ft | 290 kts | 271° |
| 2026-05-06 01:53 | 39.93581 | -105.06445 | 18289 ft | 303 kts | 271° |
| 2026-05-06 01:54 | 39.93649 | -105.09277 | 18420 ft | 322 kts | 271° |
| 2026-05-06 01:54 | 39.93717 | -105.12278 | 18604 ft | 338 kts | 271° |
| 2026-05-06 01:54 | 39.93754 | -105.13990 | 18838 ft | 342 kts | 271° |
| 2026-05-06 01:54 | 39.93819 | -105.17118 | 19368 ft | 347 kts | 271° |
| 2026-05-06 01:55 | 39.93883 | -105.20276 | 19943 ft | 350 kts | 271° |
| 2026-05-06 01:55 | 39.93971 | -105.23464 | 20529 ft | 353 kts | 273° |
| 2026-05-06 01:55 | 39.94164 | -105.26677 | 21118 ft | 357 kts | 275° |
| 2026-05-06 01:55 | 39.94429 | -105.29907 | 21653 ft | 361 kts | 276° |
| 2026-05-06 01:56 | 39.94724 | -105.33174 | 21980 ft | 364 kts | 276° |
| 2026-05-06 01:56 | 39.95020 | -105.36463 | 22037 ft | 364 kts | 276° |
| 2026-05-06 01:56 | 39.95302 | -105.39742 | 22039 ft | 364 kts | 275° |
| 2026-05-06 01:56 | 39.95571 | -105.43017 | 22031 ft | 364 kts | 275° |
| 2026-05-06 01:57 | 39.95832 | -105.46299 | 22025 ft | 364 kts | 275° |
| 2026-05-06 01:57 | 39.96089 | -105.49581 | 22024 ft | 364 kts | 275° |
| 2026-05-06 01:57 | 39.96342 | -105.52866 | 21996 ft | 364 kts | 275° |
| 2026-05-06 01:57 | 39.96595 | -105.56145 | 21988 ft | 364 kts | 275° |
| 2026-05-06 01:58 | 39.96844 | -105.59426 | 21981 ft | 364 kts | 275° |
| 2026-05-06 01:58 | 39.97092 | -105.62710 | 21970 ft | 364 kts | 275° |
| 2026-05-06 01:58 | 39.97319 | -105.66006 | 21741 ft | 366 kts | 274° |
| 2026-05-06 01:58 | 39.97516 | -105.69296 | 21464 ft | 363 kts | 274° |
| 2026-05-06 01:59 | 39.97695 | -105.72574 | 21451 ft | 362 kts | 273° |
| 2026-05-06 01:59 | 39.97868 | -105.75854 | 21458 ft | 362 kts | 273° |
| 2026-05-06 01:59 | 39.98042 | -105.79129 | 21412 ft | 362 kts | 273° |
| 2026-05-06 01:59 | 39.98221 | -105.82408 | 21413 ft | 362 kts | 273° |
| 2026-05-06 02:00 | 39.98402 | -105.85685 | 21413 ft | 362 kts | 274° |
| 2026-05-06 02:00 | 39.98583 | -105.88964 | 21366 ft | 360 kts | 274° |
| 2026-05-06 02:00 | 39.98762 | -105.92212 | 20912 ft | 357 kts | 273° |
| 2026-05-06 02:00 | 39.98934 | -105.95415 | 20608 ft | 355 kts | 273° |
| 2026-05-06 02:01 | 39.99106 | -105.98635 | 20331 ft | 355 kts | 273° |
| 2026-05-06 02:01 | 39.99277 | -106.01849 | 20047 ft | 356 kts | 274° |
| 2026-05-06 02:01 | 39.99449 | -106.05065 | 19771 ft | 355 kts | 273° |
| 2026-05-06 02:01 | 39.99582 | -106.08279 | 19500 ft | 354 kts | 272° |
| 2026-05-06 02:02 | 39.99669 | -106.11461 | 19255 ft | 347 kts | 271° |
| 2026-05-06 02:02 | 39.99728 | -106.14554 | 19023 ft | 336 kts | 271° |
| 2026-05-06 02:02 | 39.99774 | -106.17559 | 18779 ft | 327 kts | 271° |
| 2026-05-06 02:02 | 39.99820 | -106.20482 | 18550 ft | 318 kts | 271° |
| 2026-05-06 02:03 | 39.99866 | -106.23324 | 18310 ft | 310 kts | 271° |
| 2026-05-06 02:03 | 39.99913 | -106.26113 | 18069 ft | 307 kts | 271° |
| 2026-05-06 02:03 | 39.99965 | -106.28889 | 17800 ft | 305 kts | 271° |
| 2026-05-06 02:03 | 40.00019 | -106.31649 | 17531 ft | 304 kts | 271° |
| 2026-05-06 02:04 | 40.00073 | -106.34407 | 17267 ft | 303 kts | 271° |
| 2026-05-06 02:04 | 40.00127 | -106.37164 | 16990 ft | 304 kts | 271° |
| 2026-05-06 02:04 | 40.00020 | -106.39910 | 16739 ft | 304 kts | 259° |
| 2026-05-06 02:04 | 39.99268 | -106.42483 | 16468 ft | 306 kts | 241° |
| 2026-05-06 02:05 | 39.97895 | -106.44606 | 16211 ft | 311 kts | 223° |
| 2026-05-06 02:05 | 39.96019 | -106.46040 | 15957 ft | 318 kts | 205° |
| 2026-05-06 02:05 | 39.93910 | -106.46951 | 15694 ft | 318 kts | 203° |
| 2026-05-06 02:05 | 39.91817 | -106.47827 | 15436 ft | 314 kts | 203° |
| 2026-05-06 02:06 | 39.89740 | -106.48691 | 15174 ft | 312 kts | 203° |
| 2026-05-06 02:06 | 39.87675 | -106.49552 | 14916 ft | 311 kts | 203° |
| 2026-05-06 02:06 | 39.85617 | -106.50416 | 14673 ft | 309 kts | 204° |
| 2026-05-06 02:06 | 39.83590 | -106.51266 | 14427 ft | 302 kts | 203° |
| 2026-05-06 02:07 | 39.81609 | -106.52097 | 14189 ft | 298 kts | 204° |
| 2026-05-06 02:07 | 39.79653 | -106.52920 | 13973 ft | 292 kts | 204° |
| 2026-05-06 02:07 | 39.77746 | -106.53720 | 13897 ft | 282 kts | 204° |
| 2026-05-06 02:07 | 39.75924 | -106.54478 | 13901 ft | 268 kts | 204° |
| 2026-05-06 02:08 | 39.74179 | -106.55203 | 13707 ft | 263 kts | 204° |
| 2026-05-06 02:08 | 39.72465 | -106.56023 | 13341 ft | 260 kts | 213° |
| 2026-05-06 02:08 | 39.70972 | -106.57302 | 12987 ft | 255 kts | 225° |
| 2026-05-06 02:08 | 39.69787 | -106.58969 | 12668 ft | 246 kts | 238° |
| 2026-05-06 02:09 | 39.68969 | -106.60830 | 12239 ft | 229 kts | 250° |
| 2026-05-06 02:09 | 39.68507 | -106.62710 | 11891 ft | 208 kts | 259° |
| 2026-05-06 02:09 | 39.68252 | -106.64450 | 11794 ft | 185 kts | 261° |
| 2026-05-06 02:09 | 39.68024 | -106.65956 | 11768 ft | 157 kts | 261° |
| 2026-05-06 02:10 | 39.67812 | -106.67355 | 11717 ft | 159 kts | 260° |
| 2026-05-06 02:10 | 39.67580 | -106.68757 | 11432 ft | 159 kts | 259° |
| 2026-05-06 02:10 | 39.67343 | -106.70162 | 11005 ft | 162 kts | 259° |
| 2026-05-06 02:10 | 39.67093 | -106.71592 | 10469 ft | 160 kts | 258° |
| 2026-05-06 02:11 | 39.66845 | -106.72991 | 10010 ft | 158 kts | 256° |
| 2026-05-06 02:11 | 39.66568 | -106.74364 | 9632 ft | 156 kts | 257° |
| 2026-05-06 02:11 | 39.66305 | -106.75730 | 9274 ft | 157 kts | 258° |
| 2026-05-06 02:11 | 39.66069 | -106.77111 | 9031 ft | 157 kts | 262° |
| 2026-05-06 02:12 | 39.65837 | -106.78530 | 8767 ft | 160 kts | 264° |
| 2026-05-06 02:12 | 39.65607 | -106.79947 | 8596 ft | 161 kts | 261° |
| 2026-05-06 02:12 | 39.65378 | -106.81355 | 8280 ft | 155 kts | 264° |
| 2026-05-06 02:12 | 39.65191 | -106.82731 | 8000 ft | 153 kts | 263° |
| 2026-05-06 02:13 | 39.65044 | -106.84080 | 7708 ft | 149 kts | 263° |
| 2026-05-06 02:13 | 39.64927 | -106.85414 | 7456 ft | 148 kts | 263° |
| 2026-05-06 02:13 | 39.64795 | -106.86758 | 7240 ft | 150 kts | 262° |
| 2026-05-06 02:13 | 39.64651 | -106.88105 | 7096 ft | 151 kts | 262° |
| 2026-05-06 02:14 | 39.64497 | -106.89455 | 6783 ft | 152 kts | 263° |
| 2026-05-06 02:14 | 39.64356 | -106.90814 | 6550 ft | 151 kts | 264° |
| 2026-05-06 02:14 | 39.64233 | -106.92013 | 6497 ft | 112 kts | 262° |
| 2026-05-06 02:14 | 39.64163 | -106.92634 | 6485 ft | 38 kts | 262° |
| 2026-05-06 02:15 | 39.64117 | -106.92786 | 6482 ft | 14 kts | 188° |
| 2026-05-06 02:15 | 39.64047 | -106.92753 | 6471 ft | 11 kts | 113° |
| 2026-05-06 02:15 | 39.64050 | -106.92651 | 6485 ft | 12 kts | 82° |
| 2026-05-06 02:15 | 39.64062 | -106.92542 | 6488 ft | 13 kts | 81° |
| 2026-05-06 02:16 | 39.64076 | -106.92413 | 6489 ft | 16 kts | 82° |
| 2026-05-06 02:16 | 39.64094 | -106.92256 | 6492 ft | 18 kts | 82° |
| 2026-05-06 02:16 | 39.64110 | -106.92111 | 6501 ft | 15 kts | 82° |
| 2026-05-06 02:16 | 39.64125 | -106.91975 | 6507 ft | 15 kts | 82° |
| 2026-05-06 02:17 | 39.64138 | -106.91852 | 6513 ft | 14 kts | 82° |
| 2026-05-06 02:17 | 39.64153 | -106.91717 | 6520 ft | 15 kts | 82° |
| 2026-05-06 02:17 | 39.64154 | -106.91587 | 6525 ft | 14 kts | 114° |
| 2026-05-06 02:17 | 39.64087 | -106.91544 | 6527 ft | 8 kts | 174° |
| 2026-05-06 02:18 | 39.64053 | -106.91538 | 6527 ft | 0 kts | 173° |